Time;durP1;ratioP1;P1;durP2;ratioP2;P2;SDS_P1;SDS_P2;PMS_P1;PMS_P2;Temp;Humidity;BMP_temperature;BMP_pressure;BME280_temperature;BME280_humidity;BME280_pressure;Samples;Min_cycle;Max_cycle;Signal;HPM_P1;HPM_P2
2023/06/29 00:01:03;;;;;;;14.03;12.83;;;;;;;;;;5050777;28;20510;-79
2023/06/29 00:03:31;;;;;;;13.57;12.17;;;;;;;;;;5047528;28;21141;-78
2023/06/29 00:06:01;;;;;;;13.67;12.47;;;;;;;;;;5046163;28;20903;-79
2023/06/29 00:08:33;;;;;;;13.00;11.70;;;;;;;;;;5042269;28;20474;-77
2023/06/29 00:11:03;;;;;;;11.90;10.30;;;;;;;;;;5045696;28;20462;-78
2023/06/29 00:13:31;;;;;;;14.70;12.20;;;;;;;;;;5048959;28;20517;-77
2023/06/29 00:15:58;;;;;;;12.97;11.70;;;;;;;;;;5044716;28;20883;-78
2023/06/29 00:18:28;;;;;;;13.97;12.40;;;;;;;;;;5049471;28;20457;-77
2023/06/29 00:20:56;;;;;;;12.97;11.70;;;;;;;;;;5051345;28;20437;-78
2023/06/29 00:23:26;;;;;;;12.60;11.30;;;;;;;;;;5048550;28;20450;-78
2023/06/29 00:25:56;;;;;;;12.70;11.40;;;;;;;;;;5049012;28;20509;-77
2023/06/29 00:28:23;;;;;;;13.53;12.13;;;;;;;;;;5050698;28;20478;-79
2023/06/29 00:30:51;;;;;;;14.60;12.33;;;;;;;;;;5049452;28;20461;-77
2023/06/29 00:33:19;;;;;;;14.80;11.33;;;;;;;;;;5047632;28;20458;-79
2023/06/29 00:35:46;;;;;;;14.00;11.80;;;;;;;;;;5047603;28;20450;-78
2023/06/29 00:38:14;;;;;;;14.00;12.60;;;;;;;;;;5047812;28;20461;-79
2023/06/29 00:40:43;;;;;;;14.10;11.70;;;;;;;;;;5044442;28;20481;-79
2023/06/29 00:43:14;;;;;;;13.50;12.10;;;;;;;;;;5046699;28;20541;-79
2023/06/29 00:45:42;;;;;;;15.37;12.43;;;;;;;;;;5046690;28;20521;-78
2023/06/29 00:48:09;;;;;;;19.60;13.03;;;;;;;;;;5049595;28;20752;-78
2023/06/29 00:50:37;;;;;;;13.93;11.80;;;;;;;;;;5048391;28;20521;-77
2023/06/29 00:53:06;;;;;;;14.33;12.83;;;;;;;;;;5047942;28;20864;-79
2023/06/29 00:55:36;;;;;;;14.40;13.00;;;;;;;;;;5046329;28;20455;-77
2023/06/29 00:58:05;;;;;;;16.13;12.10;;;;;;;;;;5048303;28;20474;-77
2023/06/29 01:00:39;;;;;;;15.63;11.97;;;;;;;;;;5045351;28;20450;-77
2023/06/29 01:03:11;;;;;;;11.40;10.30;;;;;;;;;;5047866;28;20543;-78
2023/06/29 01:05:38;;;;;;;14.17;12.33;;;;;;;;;;5048783;28;20489;-78
2023/06/29 01:08:09;;;;;;;14.00;11.40;;;;;;;;;;5048938;28;20460;-77
2023/06/29 01:10:37;;;;;;;17.60;12.90;;;;;;;;;;5045646;28;20462;-79
2023/06/29 01:13:08;;;;;;;14.03;12.53;;;;;;;;;;5050227;28;20535;-78
2023/06/29 01:15:37;;;;;;;13.37;11.97;;;;;;;;;;5049355;28;20553;-79
2023/06/29 01:18:05;;;;;;;15.53;12.30;;;;;;;;;;5050386;28;20786;-79
2023/06/29 01:20:34;;;;;;;13.40;11.43;;;;;;;;;;5044217;28;20446;-78
2023/06/29 01:23:05;;;;;;;13.83;12.40;;;;;;;;;;5047679;28;20489;-78
2023/06/29 01:25:36;;;;;;;15.60;11.07;;;;;;;;;;5048671;28;20900;-79
2023/06/29 01:28:07;;;;;;;20.13;11.97;;;;;;;;;;5043071;28;20552;-79
2023/06/29 01:30:48;;;;;;;15.10;11.67;;;;;;;;;;5047028;28;20450;-79
2023/06/29 01:33:16;;;;;;;13.13;11.70;;;;;;;;;;5049681;28;20462;-79
2023/06/29 01:35:44;;;;;;;17.40;12.93;;;;;;;;;;5047990;28;20843;-80
2023/06/29 01:38:14;;;;;;;14.00;11.93;;;;;;;;;;5045106;28;20462;-79
2023/06/29 01:40:47;;;;;;;15.13;11.83;;;;;;;;;;5048952;28;20458;-78
2023/06/29 01:43:15;;;;;;;13.57;11.30;;;;;;;;;;5044034;28;20541;-78
2023/06/29 01:45:42;;;;;;;16.00;13.27;;;;;;;;;;5046008;28;20544;-78
2023/06/29 01:48:13;;;;;;;13.60;12.20;;;;;;;;;;5049848;28;20468;-79
2023/06/29 01:50:41;;;;;;;14.37;12.93;;;;;;;;;;5044765;28;20668;-78
2023/06/29 01:53:09;;;;;;;15.60;10.47;;;;;;;;;;5045129;28;20702;-80
2023/06/29 01:55:36;;;;;;;13.70;11.63;;;;;;;;;;5045509;28;20857;-78
2023/06/29 01:58:05;;;;;;;13.50;12.10;;;;;;;;;;5050762;28;20525;-79
2023/06/29 02:00:33;;;;;;;15.33;12.07;;;;;;;;;;5049907;28;20488;-79
2023/06/29 02:03:01;;;;;;;12.87;11.67;;;;;;;;;;5045239;28;20459;-78
2023/06/29 02:05:28;;;;;;;12.60;11.37;;;;;;;;;;5046636;28;20645;-80
2023/06/29 02:07:56;;;;;;;13.70;12.40;;;;;;;;;;5051079;28;20461;-78
2023/06/29 02:10:24;;;;;;;13.80;11.73;;;;;;;;;;5046632;28;20461;-78
2023/06/29 02:12:51;;;;;;;13.80;12.47;;;;;;;;;;5047423;28;20470;-77
2023/06/29 02:15:20;;;;;;;14.87;13.33;;;;;;;;;;5047801;28;20517;-79
2023/06/29 02:17:48;;;;;;;13.30;12.00;;;;;;;;;;5049840;28;20709;-78
2023/06/29 02:20:22;;;;;;;14.00;12.60;;;;;;;;;;5043684;28;20482;-78
2023/06/29 02:22:50;;;;;;;13.90;12.60;;;;;;;;;;5044826;28;20458;-79
2023/06/29 02:25:18;;;;;;;14.97;11.53;;;;;;;;;;5047563;28;20462;-78
2023/06/29 02:27:46;;;;;;;13.23;11.93;;;;;;;;;;5050509;28;20563;-78
2023/06/29 02:30:13;;;;;;;13.00;11.90;;;;;;;;;;5043834;28;20463;-78
2023/06/29 02:32:44;;;;;;;13.37;12.07;;;;;;;;;;5045507;28;20528;-78
2023/06/29 02:35:12;;;;;;;14.73;12.47;;;;;;;;;;5049493;28;20446;-79
2023/06/29 02:37:39;;;;;;;15.00;13.37;;;;;;;;;;5046114;28;20489;-78
2023/06/29 02:40:10;;;;;;;13.80;12.50;;;;;;;;;;5043875;28;20474;-78
2023/06/29 02:42:38;;;;;;;16.67;12.63;;;;;;;;;;5044046;28;20476;-78
2023/06/29 02:45:06;;;;;;;11.90;10.70;;;;;;;;;;5047796;28;20461;-79
2023/06/29 02:47:34;;;;;;;14.50;13.10;;;;;;;;;;5049720;28;20788;-78
2023/06/29 02:50:06;;;;;;;13.60;12.40;;;;;;;;;;5045911;28;20457;-79
2023/06/29 02:52:33;;;;;;;14.23;12.27;;;;;;;;;;5045796;28;20518;-79
2023/06/29 02:55:01;;;;;;;14.70;13.27;;;;;;;;;;5046759;28;20508;-79
2023/06/29 02:57:28;;;;;;;14.80;13.40;;;;;;;;;;5046187;28;20513;-77
2023/06/29 02:59:56;;;;;;;12.40;11.07;;;;;;;;;;5041530;28;20463;-80
2023/06/29 03:02:24;;;;;;;14.23;12.63;;;;;;;;;;5042770;28;20447;-78
2023/06/29 03:04:51;;;;;;;13.13;11.90;;;;;;;;;;5046668;28;20426;-77
2023/06/29 03:07:20;;;;;;;13.50;12.20;;;;;;;;;;5041959;28;20491;-80
2023/06/29 03:09:48;;;;;;;12.30;11.10;;;;;;;;;;5040189;28;20454;-78
2023/06/29 03:12:15;;;;;;;14.40;11.30;;;;;;;;;;5046953;28;20493;-78
2023/06/29 03:14:43;;;;;;;12.80;11.50;;;;;;;;;;5044607;28;20454;-78
2023/06/29 03:17:13;;;;;;;12.30;11.00;;;;;;;;;;5041285;28;20446;-79
2023/06/29 03:19:40;;;;;;;12.67;11.40;;;;;;;;;;5042055;28;20447;-79
2023/06/29 03:22:08;;;;;;;13.03;11.80;;;;;;;;;;5049137;28;20493;-79
2023/06/29 03:24:37;;;;;;;11.77;10.67;;;;;;;;;;5049556;28;20472;-79
2023/06/29 03:27:06;;;;;;;12.17;10.93;;;;;;;;;;5046591;28;20486;-79
2023/06/29 03:29:33;;;;;;;12.73;10.77;;;;;;;;;;5047412;28;20482;-78
2023/06/29 03:32:01;;;;;;;12.07;10.87;;;;;;;;;;5051999;28;20903;-79
2023/06/29 03:34:29;;;;;;;12.27;11.23;;;;;;;;;;5052397;28;20447;-78
2023/06/29 03:36:57;;;;;;;12.83;9.90;;;;;;;;;;5048129;28;20466;-80
2023/06/29 03:39:24;;;;;;;11.60;10.50;;;;;;;;;;5048420;28;20737;-77
2023/06/29 03:41:53;;;;;;;11.90;10.73;;;;;;;;;;5052048;28;20588;-79
2023/06/29 03:44:21;;;;;;;13.23;9.63;;;;;;;;;;5048874;28;20443;-79
2023/06/29 03:46:51;;;;;;;10.77;9.77;;;;;;;;;;5048282;28;20470;-78
2023/06/29 03:49:18;;;;;;;10.73;9.73;;;;;;;;;;5048795;28;20461;-78
2023/06/29 03:51:46;;;;;;;12.80;11.53;;;;;;;;;;5048460;28;20959;-79
2023/06/29 03:54:14;;;;;;;10.73;9.53;;;;;;;;;;5047198;28;20458;-78
2023/06/29 03:56:49;;;;;;;10.90;9.87;;;;;;;;;;5043929;28;20544;-80
2023/06/29 03:59:19;;;;;;;10.87;9.77;;;;;;;;;;5047690;28;20461;-78
2023/06/29 04:01:47;;;;;;;11.97;10.33;;;;;;;;;;5046853;28;20450;-78
2023/06/29 04:04:15;;;;;;;10.10;9.07;;;;;;;;;;5043978;28;20462;-78
2023/06/29 04:06:50;;;;;;;10.33;9.33;;;;;;;;;;5046234;28;20485;-78
2023/06/29 04:09:17;;;;;;;10.87;9.87;;;;;;;;;;5049603;28;20453;-79
2023/06/29 04:11:48;;;;;;;11.33;10.23;;;;;;;;;;5046875;28;20462;-78
2023/06/29 04:14:15;;;;;;;10.10;9.20;;;;;;;;;;5045169;28;20458;-77
2023/06/29 04:16:48;;;;;;;9.30;8.40;;;;;;;;;;5049702;28;20447;-77
2023/06/29 04:19:15;;;;;;;9.90;9.00;;;;;;;;;;5047512;28;20465;-79
2023/06/29 04:21:42;;;;;;;11.23;9.97;;;;;;;;;;5049425;28;20734;-79
2023/06/29 04:24:10;;;;;;;9.77;8.80;;;;;;;;;;5048567;28;20732;-79
2023/06/29 04:26:38;;;;;;;10.17;8.90;;;;;;;;;;5045069;28;20489;-79
2023/06/29 04:29:07;;;;;;;11.43;9.80;;;;;;;;;;5048246;28;20501;-78
2023/06/29 04:31:36;;;;;;;10.67;9.57;;;;;;;;;;5046141;28;20450;-78
2023/06/29 04:34:05;;;;;;;10.40;9.40;;;;;;;;;;5048035;28;20495;-78
2023/06/29 04:36:33;;;;;;;10.10;9.07;;;;;;;;;;5047388;28;20450;-78
2023/06/29 04:39:00;;;;;;;9.30;8.43;;;;;;;;;;5047081;28;20462;-78
2023/06/29 04:41:32;;;;;;;12.27;9.17;;;;;;;;;;5048362;28;20513;-79
2023/06/29 04:44:00;;;;;;;10.37;8.50;;;;;;;;;;5045489;28;20445;-79
2023/06/29 04:46:29;;;;;;;10.90;9.40;;;;;;;;;;5045124;28;20556;-77
2023/06/29 04:49:06;;;;;;;10.40;8.77;;;;;;;;;;5044595;28;20462;-79
2023/06/29 04:51:36;;;;;;;13.50;9.87;;;;;;;;;;5045285;28;20935;-77
2023/06/29 04:54:05;;;;;;;9.80;8.43;;;;;;;;;;5046684;28;20465;-78
2023/06/29 04:56:33;;;;;;;9.23;8.30;;;;;;;;;;5045988;28;20880;-78
2023/06/29 05:01:55;;;;;;;8.73;7.90;;;;;;;;;;5035750;28;20913;-73
2023/06/29 05:04:48;;;;;;;8.47;7.43;;;;;;;;;;5038660;28;20520;-73
2023/06/29 05:07:32;;;;;;;9.20;8.23;;;;;;;;;;5041406;28;21083;-72
2023/06/29 05:10:06;;;;;;;9.47;7.63;;;;;;;;;;5038675;28;20524;-72
2023/06/29 05:12:40;;;;;;;11.63;8.73;;;;;;;;;;5036566;28;20454;-73
2023/06/29 05:15:17;;;;;;;9.03;7.47;;;;;;;;;;5041514;28;20482;-73
2023/06/29 05:17:50;;;;;;;9.17;7.70;;;;;;;;;;5038231;28;20806;-74
2023/06/29 05:20:22;;;;;;;12.00;7.97;;;;;;;;;;5035559;28;20561;-74
2023/06/29 05:22:57;;;;;;;7.30;6.60;;;;;;;;;;5038510;28;20540;-74
2023/06/29 05:28:16;;;;;;;9.93;8.77;;;;;;;;;;5049779;28;20580;-73
2023/06/29 05:30:45;;;;;;;8.07;7.07;;;;;;;;;;5056848;28;20464;-73
2023/06/29 05:33:16;;;;;;;7.60;6.90;;;;;;;;;;5058306;28;20441;-72
2023/06/29 05:35:47;;;;;;;7.93;7.13;;;;;;;;;;5051418;28;20476;-74
2023/06/29 05:38:22;;;;;;;9.30;7.40;;;;;;;;;;5058910;28;20461;-73
2023/06/29 05:40:50;;;;;;;9.07;7.83;;;;;;;;;;5054594;28;20461;-74
2023/06/29 05:43:25;;;;;;;11.17;8.10;;;;;;;;;;5051530;28;20445;-73
2023/06/29 05:46:04;;;;;;;8.00;7.20;;;;;;;;;;5057030;28;20783;-73
2023/06/29 05:48:40;;;;;;;8.73;7.00;;;;;;;;;;5054117;28;20449;-73
2023/06/29 05:51:12;;;;;;;7.83;6.97;;;;;;;;;;5050578;28;20464;-73
2023/06/29 05:53:45;;;;;;;9.10;6.83;;;;;;;;;;5072799;28;20504;-73
2023/06/29 05:56:19;;;;;;;7.70;7.00;;;;;;;;;;5074456;28;20648;-73
2023/06/29 05:58:56;;;;;;;9.60;8.60;;;;;;;;;;5073147;28;20471;-72
2023/06/29 06:07:46;;;;;;;8.90;7.50;;;;;;;;;;5051716;28;21090;-74
2023/06/29 06:10:33;;;;;;;8.73;7.00;;;;;;;;;;5052526;28;20457;-74
2023/06/29 06:13:05;;;;;;;9.00;7.20;;;;;;;;;;5054368;28;20453;-73
2023/06/29 06:15:41;;;;;;;7.93;7.13;;;;;;;;;;5053439;28;20491;-73
2023/06/29 06:18:27;;;;;;;11.93;7.63;;;;;;;;;;5054940;28;20543;-74
2023/06/29 06:21:11;;;;;;;7.60;6.27;;;;;;;;;;5051558;28;20480;-72
2023/06/29 06:23:39;;;;;;;8.63;6.80;;;;;;;;;;5055965;28;20522;-73
2023/06/29 06:26:22;;;;;;;10.57;7.50;;;;;;;;;;5056867;28;20496;-73
2023/06/29 06:35:05;;;;;;;11.03;6.80;;;;;;;;;;5043924;28;20460;-73
2023/06/29 06:37:35;;;;;;;7.67;6.50;;;;;;;;;;5031227;28;20920;-74
2023/06/29 06:45:30;;;;;;;13.97;7.40;;;;;;;;;;5039775;28;20521;-73
2023/06/29 06:58:01;;;;;;;9.03;7.10;;;;;;;;;;5023654;28;20525;-72
2023/06/29 07:27:37;;;;;;;10.47;6.20;;;;;;;;;;5064915;23;20488;-79
2023/06/29 07:30:09;;;;;;;12.90;7.83;;;;;;;;;;5085379;28;20601;-77
2023/06/29 07:32:51;;;;;;;13.80;6.63;;;;;;;;;;5073176;28;20443;-78
2023/06/29 07:35:41;;;;;;;11.03;7.37;;;;;;;;;;5061687;28;20564;-78
2023/06/29 07:38:18;;;;;;;12.20;7.40;;;;;;;;;;5063822;28;20503;-79
2023/06/29 07:40:48;;;;;;;13.80;7.30;;;;;;;;;;5062215;28;20452;-78
2023/06/29 07:43:44;;;;;;;11.50;7.60;;;;;;;;;;5061037;28;20450;-79
2023/06/29 07:46:53;;;;;;;8.93;7.10;;;;;;;;;;5063326;28;20457;-79
2023/06/29 07:49:26;;;;;;;11.20;7.50;;;;;;;;;;5068208;28;20486;-78
2023/06/29 07:51:57;;;;;;;15.03;9.50;;;;;;;;;;5062976;28;20465;-79
2023/06/29 07:54:27;;;;;;;13.30;8.57;;;;;;;;;;5067089;28;20449;-78
2023/06/29 07:57:03;;;;;;;10.57;7.70;;;;;;;;;;5067886;28;20468;-78
2023/06/29 07:59:43;;;;;;;11.07;8.90;;;;;;;;;;5062099;28;20487;-79
2023/06/29 08:02:17;;;;;;;10.80;7.77;;;;;;;;;;5065730;28;20485;-79
2023/06/29 08:04:48;;;;;;;14.27;9.70;;;;;;;;;;5068114;28;20488;-80
2023/06/29 08:07:25;;;;;;;12.33;9.47;;;;;;;;;;5071088;28;20488;-79
2023/06/29 08:10:07;;;;;;;18.60;9.93;;;;;;;;;;5061687;28;20453;-78
2023/06/29 08:12:56;;;;;;;14.20;8.03;;;;;;;;;;5066389;28;21086;-79
2023/06/29 08:15:33;;;;;;;17.70;11.57;;;;;;;;;;5065497;28;20491;-77
2023/06/29 08:18:05;;;;;;;14.00;10.30;;;;;;;;;;5072811;28;20504;-79
2023/06/29 08:23:41;;;;;;;18.50;11.17;;;;;;;;;;5067563;28;20469;-80
2023/06/29 08:26:19;;;;;;;19.53;10.73;;;;;;;;;;5063416;28;20454;-79
2023/06/29 08:29:04;;;;;;;13.97;10.40;;;;;;;;;;5064931;28;20500;-79
2023/06/29 08:31:35;;;;;;;17.37;11.10;;;;;;;;;;5046240;28;20503;-80
2023/06/29 08:34:02;;;;;;;17.90;12.30;;;;;;;;;;5051585;28;20543;-78
2023/06/29 08:36:32;;;;;;;19.40;11.27;;;;;;;;;;5081096;28;20448;-78
2023/06/29 08:39:02;;;;;;;15.53;10.07;;;;;;;;;;5083019;28;20468;-78
2023/06/29 08:41:32;;;;;;;17.53;10.67;;;;;;;;;;5089348;28;20643;-76
2023/06/29 08:44:04;;;;;;;14.30;11.00;;;;;;;;;;5065524;28;20453;-79
2023/06/29 08:46:37;;;;;;;19.43;13.07;;;;;;;;;;5068575;28;20440;-78
2023/06/29 08:49:10;;;;;;;17.83;13.10;;;;;;;;;;5065230;28;20485;-79
2023/06/29 08:51:45;;;;;;;19.77;14.53;;;;;;;;;;5059672;28;20517;-78
2023/06/29 08:54:15;;;;;;;19.80;12.47;;;;;;;;;;5052210;28;20567;-79
2023/06/29 08:57:02;;;;;;;18.90;11.07;;;;;;;;;;5065176;28;20457;-80
2023/06/29 08:59:40;;;;;;;21.30;11.60;;;;;;;;;;5043853;28;20447;-76
2023/06/29 09:02:11;;;;;;;17.93;10.47;;;;;;;;;;5048789;28;20461;-78
2023/06/29 09:04:44;;;;;;;17.20;10.70;;;;;;;;;;5047811;28;20461;-79
2023/06/29 09:07:28;;;;;;;17.27;11.60;;;;;;;;;;5066553;28;20449;-79
2023/06/29 09:10:12;;;;;;;17.30;12.80;;;;;;;;;;5066719;28;20456;-78
2023/06/29 09:12:42;;;;;;;17.13;10.97;;;;;;;;;;5054134;28;20503;-80
2023/06/29 09:15:13;;;;;;;17.43;11.93;;;;;;;;;;5045640;28;21206;-78
2023/06/29 09:17:46;;;;;;;21.80;12.47;;;;;;;;;;5049671;28;20488;-80
2023/06/29 09:20:22;;;;;;;18.63;11.30;;;;;;;;;;5063533;28;20454;-81
2023/06/29 09:22:54;;;;;;;18.30;11.70;;;;;;;;;;5045478;28;20442;-79
2023/06/29 09:25:22;;;;;;;21.90;12.10;;;;;;;;;;5044416;28;20438;-79
2023/06/29 09:27:53;;;;;;;16.57;9.73;;;;;;;;;;5052784;28;20497;-80
2023/06/29 09:30:24;;;;;;;15.07;10.23;;;;;;;;;;5061951;28;20462;-80
2023/06/29 09:32:59;;;;;;;22.80;13.80;;;;;;;;;;5045371;28;20484;-82
2023/06/29 09:35:32;;;;;;;18.93;12.07;;;;;;;;;;5061789;28;20437;-80
2023/06/29 09:38:11;;;;;;;21.00;12.83;;;;;;;;;;5059490;28;20878;-79
2023/06/29 09:40:51;;;;;;;21.87;13.20;;;;;;;;;;5062611;28;20464;-80
2023/06/29 09:43:20;;;;;;;22.10;12.37;;;;;;;;;;5064368;28;20445;-79
2023/06/29 09:45:48;;;;;;;23.10;14.30;;;;;;;;;;5061455;28;20511;-79
2023/06/29 09:48:25;;;;;;;29.93;14.17;;;;;;;;;;5045879;28;20877;-80
2023/06/29 09:50:56;;;;;;;20.90;12.97;;;;;;;;;;5059181;28;20476;-77
2023/06/29 09:53:33;;;;;;;20.20;14.47;;;;;;;;;;5064322;28;20465;-77
2023/06/29 09:56:08;;;;;;;19.37;12.70;;;;;;;;;;5063473;28;20461;-78
2023/06/29 09:58:38;;;;;;;25.07;12.60;;;;;;;;;;5065856;28;20442;-78
2023/06/29 10:01:06;;;;;;;21.70;15.47;;;;;;;;;;5080126;28;20484;-79
2023/06/29 10:03:35;;;;;;;22.37;13.93;;;;;;;;;;5075023;28;20477;-78
2023/06/29 10:06:05;;;;;;;19.57;11.80;;;;;;;;;;5057591;28;20453;-80
2023/06/29 10:08:39;;;;;;;20.37;13.57;;;;;;;;;;5063381;28;20493;-80
2023/06/29 10:11:06;;;;;;;19.30;12.73;;;;;;;;;;5058343;28;20457;-81
2023/06/29 10:13:38;;;;;;;20.10;14.77;;;;;;;;;;5063880;28;20450;-80
2023/06/29 10:16:11;;;;;;;20.00;14.20;;;;;;;;;;5059595;28;20501;-80
2023/06/29 10:18:42;;;;;;;18.43;12.90;;;;;;;;;;5061856;28;20457;-80
2023/06/29 10:21:10;;;;;;;24.00;14.90;;;;;;;;;;5067091;28;20461;-79
2023/06/29 10:23:43;;;;;;;22.77;13.10;;;;;;;;;;5068593;28;20450;-81
2023/06/29 10:26:13;;;;;;;25.30;12.80;;;;;;;;;;5065918;28;20450;-80
2023/06/29 10:28:41;;;;;;;24.37;14.10;;;;;;;;;;5068127;28;20492;-79
2023/06/29 10:31:14;;;;;;;19.63;14.53;;;;;;;;;;5082768;28;20458;-79
2023/06/29 10:33:47;;;;;;;19.40;12.17;;;;;;;;;;5076266;28;20752;-79
2023/06/29 10:36:15;;;;;;;18.40;13.10;;;;;;;;;;5068956;28;20461;-80
2023/06/29 10:38:44;;;;;;;16.90;11.10;;;;;;;;;;5066380;28;20473;-81
2023/06/29 10:41:25;;;;;;;20.40;13.10;;;;;;;;;;5063920;28;20518;-81
2023/06/29 10:43:56;;;;;;;16.87;11.50;;;;;;;;;;5069053;28;20453;-80
2023/06/29 10:46:38;;;;;;;17.17;11.43;;;;;;;;;;5067538;28;20456;-81
2023/06/29 10:49:10;;;;;;;17.50;11.90;;;;;;;;;;5054419;28;20492;-80
2023/06/29 10:51:50;;;;;;;20.37;13.43;;;;;;;;;;5071590;28;20454;-81
2023/06/29 10:54:22;;;;;;;19.70;11.80;;;;;;;;;;5066624;28;20524;-83
2023/06/29 10:57:00;;;;;;;17.93;11.30;;;;;;;;;;5063745;28;20994;-80
2023/06/29 10:59:38;;;;;;;18.23;11.80;;;;;;;;;;5067386;28;20485;-82
2023/06/29 11:02:10;;;;;;;15.43;11.60;;;;;;;;;;5067365;28;20446;-81
2023/06/29 11:04:46;;;;;;;15.80;12.40;;;;;;;;;;5066275;28;20599;-78
2023/06/29 11:07:15;;;;;;;15.20;11.47;;;;;;;;;;5085485;28;20443;-80
2023/06/29 11:09:45;;;;;;;16.30;11.33;;;;;;;;;;5086106;28;20929;-79
2023/06/29 11:12:13;;;;;;;18.10;11.40;;;;;;;;;;5093089;28;20453;-79
2023/06/29 11:14:43;;;;;;;15.87;12.97;;;;;;;;;;5090031;28;20811;-78
2023/06/29 11:17:12;;;;;;;18.50;12.27;;;;;;;;;;5066449;28;20533;-80
2023/06/29 11:19:45;;;;;;;16.53;11.53;;;;;;;;;;5071801;28;20449;-80
2023/06/29 11:22:12;;;;;;;18.70;13.80;;;;;;;;;;5068378;28;20464;-80
2023/06/29 11:24:43;;;;;;;19.77;13.40;;;;;;;;;;5066959;28;20460;-80
2023/06/29 11:27:20;;;;;;;19.23;13.70;;;;;;;;;;5067236;28;20685;-78
2023/06/29 11:29:59;;;;;;;15.80;11.40;;;;;;;;;;5050169;28;20492;-79
2023/06/29 11:32:34;;;;;;;18.10;11.70;;;;;;;;;;5071084;28;20523;-79
2023/06/29 11:35:09;;;;;;;23.43;11.63;;;;;;;;;;5066060;28;20457;-79
2023/06/29 11:37:37;;;;;;;18.60;12.10;;;;;;;;;;5065145;28;20456;-82
2023/06/29 11:40:18;;;;;;;22.33;13.50;;;;;;;;;;5066199;28;20457;-81
2023/06/29 11:42:49;;;;;;;18.27;11.40;;;;;;;;;;5050431;28;20464;-81
2023/06/29 11:45:18;;;;;;;19.67;10.53;;;;;;;;;;5065306;28;20440;-79
2023/06/29 11:47:46;;;;;;;19.70;10.70;;;;;;;;;;5062886;28;20489;-78
2023/06/29 11:50:17;;;;;;;20.93;11.83;;;;;;;;;;5061873;28;20472;-81
2023/06/29 11:52:46;;;;;;;21.47;12.17;;;;;;;;;;5066700;28;20469;-81
2023/06/29 11:55:15;;;;;;;19.20;11.83;;;;;;;;;;5062960;28;20524;-80
2023/06/29 11:57:43;;;;;;;16.10;12.03;;;;;;;;;;5064589;28;20512;-79
2023/06/29 12:00:30;;;;;;;16.77;12.10;;;;;;;;;;5069930;28;20437;-80
2023/06/29 12:03:08;;;;;;;21.40;13.77;;;;;;;;;;5070786;28;20466;-81
2023/06/29 12:05:40;;;;;;;18.07;12.23;;;;;;;;;;5070425;28;20464;-79
2023/06/29 12:08:13;;;;;;;17.63;11.73;;;;;;;;;;5071098;28;21247;-81
2023/06/29 12:10:43;;;;;;;17.10;13.63;;;;;;;;;;5058153;28;20517;-80
2023/06/29 12:13:25;;;;;;;18.73;13.13;;;;;;;;;;5063394;28;20534;-79
2023/06/29 12:16:02;;;;;;;18.33;12.70;;;;;;;;;;5071780;28;20495;-79
2023/06/29 12:21:11;;;;;;;20.10;13.60;;;;;;;;;;5061164;28;20603;-78
2023/06/29 12:23:39;;;;;;;21.27;12.77;;;;;;;;;;5087777;28;20432;-78
2023/06/29 12:26:07;;;;;;;19.80;12.30;;;;;;;;;;5079541;28;20445;-79
2023/06/29 12:28:35;;;;;;;19.53;13.33;;;;;;;;;;5085274;28;20527;-79
2023/06/29 12:31:05;;;;;;;19.93;12.00;;;;;;;;;;5068116;28;20464;-82
2023/06/29 12:33:33;;;;;;;20.87;14.70;;;;;;;;;;5057482;28;20495;-81
2023/06/29 12:36:00;;;;;;;22.87;14.67;;;;;;;;;;5040359;28;20453;-80
2023/06/29 12:38:40;;;;;;;18.90;11.70;;;;;;;;;;5065452;28;20440;-81
2023/06/29 12:41:08;;;;;;;21.60;12.17;;;;;;;;;;5060447;28;20468;-79
2023/06/29 12:43:36;;;;;;;17.40;13.17;;;;;;;;;;5063207;28;20465;-80
2023/06/29 12:46:09;;;;;;;16.90;12.17;;;;;;;;;;5066783;28;20526;-82
2023/06/29 12:48:39;;;;;;;19.60;13.23;;;;;;;;;;5061348;28;20509;-80
2023/06/29 12:51:11;;;;;;;23.20;14.10;;;;;;;;;;5053702;28;20466;-78
2023/06/29 12:53:43;;;;;;;17.73;12.30;;;;;;;;;;5055321;28;21046;-79
2023/06/29 12:56:12;;;;;;;16.50;12.50;;;;;;;;;;5081628;28;20441;-80
2023/06/29 12:58:39;;;;;;;20.63;13.10;;;;;;;;;;5083433;28;20464;-79
2023/06/29 13:01:08;;;;;;;18.60;12.33;;;;;;;;;;5063581;28;20491;-80
2023/06/29 13:03:36;;;;;;;16.50;12.77;;;;;;;;;;5061649;28;20474;-80
2023/06/29 13:06:03;;;;;;;22.73;13.30;;;;;;;;;;5066269;28;20449;-81
2023/06/29 13:08:31;;;;;;;17.83;12.17;;;;;;;;;;5065931;28;20501;-81
2023/06/29 13:10:59;;;;;;;17.90;12.70;;;;;;;;;;5066635;28;20474;-80
2023/06/29 13:13:30;;;;;;;20.73;13.07;;;;;;;;;;5047984;28;20488;-80
2023/06/29 13:15:58;;;;;;;19.00;12.20;;;;;;;;;;5055410;28;20466;-79
2023/06/29 13:18:28;;;;;;;21.50;13.50;;;;;;;;;;5048103;28;20889;-81
2023/06/29 13:21:00;;;;;;;21.67;14.10;;;;;;;;;;5062007;28;21011;-81
2023/06/29 13:23:28;;;;;;;18.00;12.10;;;;;;;;;;5065166;28;20465;-80
2023/06/29 13:25:57;;;;;;;18.50;11.67;;;;;;;;;;5060718;28;20462;-80
2023/06/29 13:28:24;;;;;;;18.40;13.10;;;;;;;;;;5070347;28;20519;-80
2023/06/29 13:30:51;;;;;;;19.13;12.07;;;;;;;;;;5059014;28;20548;-80
2023/06/29 13:33:19;;;;;;;19.97;12.70;;;;;;;;;;5062865;28;20497;-80
2023/06/29 13:35:49;;;;;;;19.00;13.63;;;;;;;;;;5049804;28;20484;-80
2023/06/29 13:38:25;;;;;;;19.00;11.93;;;;;;;;;;5057988;28;20472;-79
2023/06/29 13:40:53;;;;;;;20.00;14.07;;;;;;;;;;5063491;28;20457;-80
2023/06/29 13:43:21;;;;;;;16.80;12.30;;;;;;;;;;5064484;28;20454;-80
2023/06/29 13:45:50;;;;;;;19.70;13.77;;;;;;;;;;5064784;28;20484;-80
2023/06/29 13:48:19;;;;;;;18.73;12.83;;;;;;;;;;5062717;28;20445;-81
2023/06/29 13:50:46;;;;;;;21.10;15.90;;;;;;;;;;5058586;28;20482;-81
2023/06/29 13:53:24;;;;;;;20.87;14.70;;;;;;;;;;5056886;28;20898;-80
2023/06/29 13:55:53;;;;;;;18.90;13.60;;;;;;;;;;5064078;28;20456;-81
2023/06/29 13:58:26;;;;;;;23.40;14.33;;;;;;;;;;5068155;28;20469;-79
2023/06/29 14:00:56;;;;;;;17.77;13.03;;;;;;;;;;5056252;28;21094;-82
2023/06/29 14:03:24;;;;;;;20.67;15.13;;;;;;;;;;5061412;28;20457;-81
2023/06/29 14:05:52;;;;;;;21.03;14.27;;;;;;;;;;5062329;28;20472;-80
2023/06/29 14:08:26;;;;;;;22.93;13.60;;;;;;;;;;5057925;28;20495;-81
2023/06/29 14:10:54;;;;;;;20.97;14.03;;;;;;;;;;5064477;28;20473;-81
2023/06/29 14:13:22;;;;;;;19.77;14.23;;;;;;;;;;5063794;28;20457;-81
2023/06/29 14:15:50;;;;;;;19.53;15.17;;;;;;;;;;5073794;28;20469;-80
2023/06/29 14:18:18;;;;;;;22.33;13.00;;;;;;;;;;5071541;28;20867;-82
2023/06/29 14:20:46;;;;;;;19.93;14.47;;;;;;;;;;5064094;28;20525;-80
2023/06/29 14:23:15;;;;;;;20.30;12.03;;;;;;;;;;5059234;28;20459;-79
2023/06/29 14:25:44;;;;;;;16.87;12.23;;;;;;;;;;5055765;28;20446;-82
2023/06/29 14:28:11;;;;;;;24.53;14.67;;;;;;;;;;5064390;28;20446;-81
2023/06/29 14:30:48;;;;;;;26.93;17.30;;;;;;;;;;5062873;28;20489;-82
2023/06/29 14:33:25;;;;;;;20.00;14.17;;;;;;;;;;5063502;28;20537;-81
2023/06/29 14:35:58;;;;;;;19.60;13.20;;;;;;;;;;5063660;28;20536;-80
2023/06/29 14:38:28;;;;;;;20.20;12.90;;;;;;;;;;5060717;28;20481;-81
2023/06/29 14:40:58;;;;;;;23.30;16.27;;;;;;;;;;5062894;28;20461;-80
2023/06/29 14:43:26;;;;;;;19.77;14.10;;;;;;;;;;5062832;28;20485;-80
2023/06/29 14:45:55;;;;;;;22.23;12.80;;;;;;;;;;5059716;28;20491;-80
2023/06/29 14:48:23;;;;;;;19.60;13.23;;;;;;;;;;5058584;28;20453;-80
2023/06/29 14:50:53;;;;;;;22.17;14.00;;;;;;;;;;5062927;28;20512;-80
2023/06/29 14:53:21;;;;;;;19.47;13.00;;;;;;;;;;5065409;28;20444;-83
2023/06/29 14:55:49;;;;;;;17.13;12.47;;;;;;;;;;5059379;28;20533;-79
2023/06/29 14:58:47;;;;;;;20.73;13.90;;;;;;;;;;5062334;28;20501;-80
2023/06/29 15:01:33;;;;;;;24.33;15.47;;;;;;;;;;5063293;28;20437;-79
2023/06/29 15:04:03;;;;;;;24.43;14.53;;;;;;;;;;5055121;28;20988;-79
2023/06/29 15:06:32;;;;;;;28.43;17.10;;;;;;;;;;5058653;28;20502;-79
2023/06/29 15:08:59;;;;;;;22.10;14.57;;;;;;;;;;5063078;28;20489;-79
2023/06/29 15:11:27;;;;;;;21.30;15.03;;;;;;;;;;5059340;28;20687;-80
2023/06/29 15:13:55;;;;;;;15.67;13.70;;;;;;;;;;5065049;28;20453;-79
2023/06/29 15:16:29;;;;;;;21.40;15.83;;;;;;;;;;5063487;28;20488;-80
2023/06/29 15:18:59;;;;;;;24.10;15.07;;;;;;;;;;5059146;28;20450;-79
2023/06/29 15:21:30;;;;;;;20.50;13.13;;;;;;;;;;5041547;28;20438;-80
2023/06/29 15:23:58;;;;;;;21.43;13.27;;;;;;;;;;5042012;28;20480;-80
2023/06/29 15:26:26;;;;;;;22.90;14.23;;;;;;;;;;5044074;28;20520;-80
2023/06/29 15:28:54;;;;;;;24.00;15.77;;;;;;;;;;5045779;28;20462;-76
2023/06/29 15:31:23;;;;;;;19.30;13.80;;;;;;;;;;5048753;28;20454;-80
2023/06/29 15:33:51;;;;;;;24.00;15.90;;;;;;;;;;5046448;28;20457;-80
2023/06/29 15:36:18;;;;;;;21.83;14.07;;;;;;;;;;5043013;28;20761;-81
2023/06/29 15:38:49;;;;;;;21.77;14.97;;;;;;;;;;5044197;28;20951;-79
2023/06/29 15:41:19;;;;;;;25.33;15.00;;;;;;;;;;5046152;28;20481;-79
2023/06/29 15:43:52;;;;;;;27.50;16.90;;;;;;;;;;5048450;28;20434;-79
2023/06/29 15:46:20;;;;;;;29.70;19.73;;;;;;;;;;5042861;28;20462;-80
2023/06/29 15:48:48;;;;;;;26.37;16.17;;;;;;;;;;5075765;28;20461;-80
2023/06/29 15:51:17;;;;;;;27.17;16.23;;;;;;;;;;5084012;28;20531;-82